createdAt,value
2023-04-08T00:00:53.807Z,31.88
2023-04-08T00:03:55.080Z,31.95
2023-04-08T00:06:55.810Z,31.89
2023-04-08T00:09:56.869Z,31.95
2023-04-08T00:12:57.833Z,31.79
2023-04-08T00:15:58.864Z,31.82
2023-04-08T00:18:59.812Z,31.90
2023-04-08T00:22:00.878Z,31.63
2023-04-08T00:25:01.828Z,31.64
2023-04-08T00:28:02.882Z,31.87
2023-04-08T00:31:03.865Z,31.87
2023-04-08T00:34:04.855Z,31.64
2023-04-08T00:37:05.810Z,31.90
2023-04-08T00:40:06.841Z,31.70
2023-04-08T00:43:07.816Z,31.87
2023-04-08T00:46:08.893Z,31.70
2023-04-08T00:49:09.817Z,31.66
2023-04-08T00:52:11.025Z,31.63
2023-04-08T00:55:11.826Z,31.74
2023-04-08T00:58:12.846Z,31.68
2023-04-08T01:01:23.871Z,31.47
2023-04-08T01:04:34.855Z,31.56
2023-04-08T01:07:45.835Z,31.66
2023-04-08T01:10:49.861Z,31.83
2023-04-08T01:13:59.820Z,31.73
2023-04-08T01:17:00.859Z,31.65
2023-04-08T01:20:01.818Z,31.64
2023-04-08T01:23:14.862Z,31.93
2023-04-08T01:26:15.787Z,31.93
2023-04-08T01:29:18.853Z,31.90
2023-04-08T01:32:20.876Z,31.68
2023-04-08T01:35:21.857Z,31.54
2023-04-08T01:38:27.792Z,31.65
2023-04-08T01:41:30.868Z,31.66
2023-04-08T01:44:31.785Z,31.85
2023-04-08T01:47:32.922Z,31.53
2023-04-08T01:50:33.781Z,31.68
2023-04-08T01:53:35.066Z,31.59
2023-04-08T01:56:35.789Z,31.51
2023-04-08T01:59:37.848Z,31.58
2023-04-08T02:02:33.109Z,31.81
2023-04-08T02:05:33.909Z,31.64
2023-04-08T02:08:34.804Z,31.77
2023-04-08T02:11:35.811Z,31.84
2023-04-08T02:14:36.817Z,31.72
2023-04-08T02:17:49.953Z,31.54
2023-04-08T02:21:01.816Z,31.70
2023-04-08T02:24:03.991Z,31.54
2023-04-08T02:27:05.814Z,31.83
2023-04-08T02:30:07.858Z,31.59
2023-04-08T02:33:10.808Z,31.80
2023-04-08T02:36:11.839Z,31.89
2023-04-08T02:39:12.788Z,31.69
2023-04-08T02:42:15.860Z,31.52
2023-04-08T02:45:16.828Z,31.74
2023-04-08T02:48:17.856Z,31.70
2023-04-08T02:51:18.806Z,31.86
2023-04-08T02:54:19.902Z,31.77
2023-04-08T02:57:20.794Z,31.82
2023-04-08T03:00:21.848Z,31.75
2023-04-08T03:03:16.094Z,31.72
2023-04-08T03:06:16.820Z,31.69
2023-04-08T03:09:17.768Z,31.60
2023-04-08T03:12:18.848Z,31.61
2023-04-08T03:15:19.785Z,31.87
2023-04-08T03:18:20.833Z,31.71
2023-04-08T03:21:21.846Z,31.62
2023-04-08T03:24:22.835Z,31.65
2023-04-08T03:27:23.800Z,31.57
2023-04-08T03:30:24.841Z,31.58
2023-04-08T03:33:25.798Z,31.69
2023-04-08T03:36:26.829Z,31.52
2023-04-08T03:39:27.800Z,31.51
2023-04-08T03:42:28.836Z,31.59
2023-04-08T03:45:29.810Z,31.74
2023-04-08T03:48:30.801Z,31.50
2023-04-08T03:51:31.811Z,31.50
2023-04-08T03:54:33.111Z,31.62
2023-04-08T03:57:33.784Z,31.42
2023-04-08T04:00:34.832Z,31.48
2023-04-08T04:03:35.850Z,31.51
2023-04-08T04:06:36.801Z,31.41
2023-04-08T04:09:37.785Z,31.41
2023-04-08T04:12:38.819Z,31.68
2023-04-08T04:15:39.917Z,31.75
2023-04-08T04:18:40.833Z,31.61
2023-04-08T04:21:41.784Z,31.71
2023-04-08T04:24:42.823Z,31.74
2023-04-08T04:27:43.784Z,31.72
2023-04-08T04:30:44.875Z,31.53
2023-04-08T04:33:45.811Z,31.66
2023-04-08T04:36:46.825Z,31.64
2023-04-08T04:39:47.776Z,31.57
2023-04-08T04:42:48.913Z,31.57
2023-04-08T04:45:49.795Z,31.45
2023-04-08T04:48:50.993Z,31.55
2023-04-08T04:51:51.775Z,31.58
2023-04-08T04:54:52.996Z,31.55
2023-04-08T04:57:53.772Z,31.47
2023-04-08T05:00:54.815Z,31.47
2023-04-08T05:03:55.791Z,31.71
2023-04-08T05:06:56.850Z,31.66
2023-04-08T05:09:57.783Z,31.67
2023-04-08T05:12:58.833Z,31.56
2023-04-08T05:15:59.832Z,31.59
2023-04-08T05:19:00.830Z,31.46
2023-04-08T05:22:01.838Z,31.66
2023-04-08T05:25:02.807Z,31.64
2023-04-08T05:28:03.782Z,31.62
2023-04-08T05:31:04.835Z,31.45
2023-04-08T05:34:05.791Z,31.68
2023-04-08T05:37:06.807Z,31.56
2023-04-08T05:40:07.764Z,31.59
2023-04-08T05:43:08.832Z,31.59
2023-04-08T05:46:09.792Z,31.58
2023-04-08T05:49:10.835Z,31.75
2023-04-08T05:52:11.779Z,31.54
2023-04-08T05:55:13.009Z,31.55
2023-04-08T05:58:13.787Z,31.53
2023-04-08T06:01:14.819Z,31.75
2023-04-08T06:04:15.839Z,31.75
2023-04-08T06:07:16.851Z,31.79
2023-04-08T06:10:17.776Z,31.82
2023-04-08T06:13:18.822Z,31.81
2023-04-08T06:16:25.835Z,31.79
2023-04-08T06:19:26.832Z,31.80
2023-04-08T06:22:27.766Z,32.17
2023-04-08T06:25:28.810Z,32.21
2023-04-08T06:28:29.757Z,31.98
2023-04-08T06:31:31.838Z,32.03
2023-04-08T06:34:32.776Z,32.12
2023-04-08T06:37:33.787Z,31.87
2023-04-08T06:40:34.763Z,31.60
2023-04-08T06:43:35.817Z,31.79
2023-04-08T06:46:36.754Z,31.94
2023-04-08T06:49:37.792Z,31.75
2023-04-08T06:52:38.758Z,31.84
2023-04-08T06:55:39.926Z,31.88
2023-04-08T06:58:40.762Z,31.95
2023-04-08T07:01:41.913Z,31.77
2023-04-08T07:04:43.894Z,31.53
2023-04-08T07:07:45.790Z,31.59
2023-04-08T07:10:46.767Z,31.70
2023-04-08T07:13:47.797Z,31.85
2023-04-08T07:16:48.820Z,32.17
2023-04-08T07:19:50.796Z,31.99
2023-04-08T07:22:51.781Z,32.12
2023-04-08T07:25:52.817Z,31.77
2023-04-08T07:28:53.761Z,31.92
2023-04-08T07:31:54.797Z,31.76
2023-04-08T07:34:55.751Z,31.84
2023-04-08T07:37:56.811Z,31.85
2023-04-08T07:40:57.804Z,31.83
2023-04-08T07:43:58.822Z,31.77
2023-04-08T07:46:59.761Z,32.03
2023-04-08T07:50:00.779Z,31.90
2023-04-08T07:53:01.747Z,31.83
2023-04-08T07:56:02.845Z,31.66
2023-04-08T07:59:03.767Z,31.96
2023-04-08T08:02:04.812Z,31.88
2023-04-08T08:05:05.837Z,31.89
2023-04-08T08:08:06.774Z,31.63
2023-04-08T08:11:07.763Z,31.75
2023-04-08T08:14:08.792Z,31.79
2023-04-08T08:17:09.809Z,31.92
2023-04-08T08:20:11.792Z,31.85
2023-04-08T08:23:12.822Z,31.75
2023-04-08T08:26:17.852Z,32.01
2023-04-08T08:29:18.740Z,31.86
2023-04-08T08:32:20.787Z,32.01
2023-04-08T08:35:21.728Z,31.93
2023-04-08T08:38:23.803Z,31.84
2023-04-08T08:41:24.734Z,31.85
2023-04-08T08:44:25.789Z,31.88
2023-04-08T08:47:26.768Z,31.89
2023-04-08T08:50:27.802Z,31.72
2023-04-08T08:53:29.740Z,31.75
2023-04-08T08:56:30.971Z,31.84
2023-04-08T08:59:31.734Z,31.85
2023-04-08T09:02:42.899Z,31.72
2023-04-08T09:05:43.909Z,31.73
2023-04-08T09:08:44.800Z,31.76
2023-04-08T09:11:46.769Z,31.89
2023-04-08T09:14:47.780Z,31.79
2023-04-08T09:17:48.764Z,31.92
2023-04-08T09:20:49.765Z,31.75
2023-04-08T09:23:54.922Z,31.88
2023-04-08T09:26:59.829Z,31.85
2023-04-08T09:30:00.739Z,31.84
2023-04-08T09:33:04.833Z,31.94
2023-04-08T09:36:05.745Z,31.83
2023-04-08T09:39:06.766Z,31.95
2023-04-08T09:42:08.795Z,31.91
2023-04-08T09:45:09.794Z,31.72
2023-04-08T09:48:14.451Z,31.81
2023-04-08T09:51:16.769Z,31.82
2023-04-08T09:54:20.738Z,31.69
2023-04-08T09:57:26.846Z,31.77
2023-04-08T10:00:28.714Z,31.67
2023-04-08T10:03:39.853Z,31.58
2023-04-08T10:06:41.718Z,31.84
2023-04-08T10:09:42.772Z,31.62
2023-04-08T10:12:43.763Z,31.64
2023-04-08T10:15:47.782Z,31.84
2023-04-08T10:18:49.728Z,31.73
2023-04-08T10:21:54.777Z,31.71
2023-04-08T10:25:15.754Z,31.57
2023-04-08T10:28:36.768Z,31.61
2023-04-08T10:31:37.771Z,31.52
2023-04-08T10:34:38.764Z,31.81
2023-04-08T10:37:39.721Z,31.73
2023-04-08T10:40:40.781Z,31.60
2023-04-08T10:43:45.718Z,31.63
2023-04-08T10:46:51.786Z,31.99
2023-04-08T10:49:52.698Z,31.70
2023-04-08T10:53:03.768Z,31.75
2023-04-08T10:56:05.765Z,31.64
2023-04-08T10:59:09.813Z,31.64
2023-04-08T11:02:10.830Z,31.71
2023-04-08T11:05:11.766Z,31.62
2023-04-08T11:08:08.386Z,31.65
2023-04-08T11:11:01.763Z,31.59
2023-04-08T11:14:02.731Z,31.67
2023-04-08T11:17:03.759Z,31.77
2023-04-08T11:20:08.722Z,31.76
2023-04-08T11:23:09.747Z,31.84
2023-04-08T11:26:10.727Z,31.87
2023-04-08T11:29:11.748Z,31.85
2023-04-08T11:32:12.735Z,31.70
2023-04-08T11:35:13.760Z,31.86
2023-04-08T11:38:17.741Z,31.90
2023-04-08T11:41:18.769Z,32.12
2023-04-08T11:44:19.707Z,31.95
2023-04-08T11:47:20.772Z,31.96
2023-04-08T11:50:21.721Z,31.87
2023-04-08T11:53:31.780Z,31.69
2023-04-08T11:56:32.703Z,31.73
2023-04-08T11:59:33.815Z,31.81
2023-04-08T12:02:34.797Z,31.92
2023-04-08T12:05:35.771Z,31.87
2023-04-08T12:08:36.736Z,31.93
2023-04-08T12:11:37.781Z,31.98
2023-04-08T12:14:38.738Z,31.83
2023-04-08T12:17:39.801Z,32.00
2023-04-08T12:20:40.714Z,31.93
2023-04-08T12:23:41.757Z,31.97
2023-04-08T12:26:42.712Z,32.00
2023-04-08T12:29:43.742Z,31.92
2023-04-08T12:32:44.765Z,31.93
2023-04-08T12:35:45.767Z,31.98
2023-04-08T12:38:46.738Z,32.02
2023-04-08T12:41:47.767Z,32.06
2023-04-08T12:44:48.701Z,32.17
2023-04-08T12:47:49.774Z,32.14
2023-04-08T12:50:50.724Z,32.13
2023-04-08T12:53:51.753Z,32.29
2023-04-08T12:56:52.728Z,32.27
2023-04-08T12:59:53.848Z,32.13
2023-04-08T13:02:54.846Z,32.18
2023-04-08T13:05:55.756Z,32.23
2023-04-08T13:08:56.716Z,32.40
2023-04-08T13:11:57.768Z,32.55
2023-04-08T13:14:58.698Z,32.57
2023-04-08T13:17:59.888Z,32.62
2023-04-08T13:21:01.704Z,32.60
2023-04-08T13:24:02.770Z,32.64
2023-04-08T13:27:03.736Z,32.65
2023-04-08T13:30:04.766Z,32.52
2023-04-08T13:33:05.817Z,32.84
2023-04-08T13:36:06.797Z,32.84
2023-04-08T13:39:07.721Z,32.81
2023-04-08T13:42:09.777Z,32.92
2023-04-08T13:45:10.716Z,32.78
2023-04-08T13:48:11.768Z,32.96
2023-04-08T13:51:12.689Z,33.15
2023-04-08T13:54:13.740Z,32.99
2023-04-08T13:57:14.687Z,32.81
2023-04-08T14:00:15.823Z,32.84
2023-04-08T14:03:16.733Z,32.80
2023-04-08T14:06:17.731Z,32.75
2023-04-08T14:09:18.705Z,32.84
2023-04-08T14:12:19.734Z,32.93
2023-04-08T14:15:20.708Z,32.83
2023-04-08T14:18:23.733Z,32.85
2023-04-08T14:21:25.730Z,32.88
2023-04-08T14:24:26.748Z,33.02
2023-04-08T14:27:27.687Z,32.88
2023-04-08T14:30:28.897Z,32.92
2023-04-08T14:33:29.687Z,32.94
2023-04-08T14:36:30.740Z,33.00
2023-04-08T14:39:31.686Z,32.99
2023-04-08T14:42:32.737Z,33.03
2023-04-08T14:45:33.692Z,33.12
2023-04-08T14:48:36.739Z,33.33
2023-04-08T14:51:37.687Z,33.27
2023-04-08T14:54:38.748Z,33.29
2023-04-08T14:57:39.709Z,33.23
2023-04-08T15:00:40.962Z,33.27
2023-04-08T15:03:41.768Z,33.14
2023-04-08T15:06:42.741Z,33.34
2023-04-08T15:09:43.677Z,33.12
2023-04-08T15:12:44.740Z,33.12
2023-04-08T15:15:45.727Z,32.87
2023-04-08T15:18:46.720Z,32.70
2023-04-08T15:21:47.738Z,32.64
2023-04-08T15:24:48.843Z,32.68
2023-04-08T15:27:49.728Z,32.79
2023-04-08T15:30:50.757Z,32.77
2023-04-08T15:33:51.816Z,32.68
2023-04-08T15:36:53.742Z,32.59
2023-04-08T15:39:54.695Z,32.91
2023-04-08T15:42:55.714Z,32.93
2023-04-08T15:45:56.725Z,33.12
2023-04-08T15:48:59.103Z,33.05
2023-04-08T15:52:00.666Z,32.80
2023-04-08T15:55:01.720Z,32.93
2023-04-08T15:58:03.672Z,32.84
2023-04-08T16:01:04.886Z,32.71
2023-04-08T16:04:05.703Z,32.67
2023-04-08T16:07:06.705Z,32.58
2023-04-08T16:10:07.670Z,32.53
2023-04-08T16:13:08.749Z,32.50
2023-04-08T16:16:09.722Z,32.29
2023-04-08T16:19:10.749Z,32.40
2023-04-08T16:22:11.685Z,32.67
2023-04-08T16:25:12.727Z,32.62
2023-04-08T16:28:13.692Z,32.56
2023-04-08T16:31:14.749Z,32.63
2023-04-08T16:34:15.659Z,32.62
2023-04-08T16:37:16.791Z,32.56
2023-04-08T16:40:17.719Z,32.60
2023-04-08T16:43:18.745Z,32.74
2023-04-08T16:46:22.695Z,32.84
2023-04-08T16:49:23.716Z,32.69
2023-04-08T16:52:24.663Z,32.52
2023-04-08T16:55:25.716Z,32.75
2023-04-08T16:58:26.679Z,32.79
2023-04-08T17:01:27.946Z,32.71
2023-04-08T17:04:28.652Z,32.36
2023-04-08T17:07:29.709Z,32.56
2023-04-08T17:10:30.694Z,32.31
2023-04-08T17:13:31.702Z,32.36
2023-04-08T17:16:32.736Z,32.30
2023-04-08T17:19:33.714Z,32.52
2023-04-08T17:22:34.663Z,32.23
2023-04-08T17:25:35.750Z,32.32
2023-04-08T17:28:36.662Z,32.28
2023-04-08T17:31:37.779Z,32.31
2023-04-08T17:34:39.644Z,32.29
2023-04-08T17:37:40.729Z,32.24
2023-04-08T17:40:41.690Z,32.36
2023-04-08T17:43:42.708Z,32.34
2023-04-08T17:46:44.666Z,32.40
2023-04-08T17:49:45.719Z,32.89
2023-04-08T17:52:46.654Z,32.48
2023-04-08T17:55:47.686Z,32.55
2023-04-08T17:58:48.687Z,32.44
2023-04-08T18:01:50.017Z,32.35
2023-04-08T18:04:50.667Z,32.32
2023-04-08T18:07:51.699Z,32.40
2023-04-08T18:10:52.682Z,32.37
2023-04-08T18:13:54.732Z,32.43
2023-04-08T18:16:55.680Z,32.28
2023-04-08T18:19:56.778Z,32.29
2023-04-08T18:22:57.721Z,32.36
2023-04-08T18:26:01.725Z,32.36
2023-04-08T18:29:02.669Z,32.21
2023-04-08T18:32:03.690Z,32.29
2023-04-08T18:35:04.681Z,32.30
2023-04-08T18:38:05.705Z,32.31
2023-04-08T18:41:06.647Z,32.29
2023-04-08T18:44:09.707Z,32.35
2023-04-08T18:47:10.638Z,32.42
2023-04-08T18:50:11.688Z,32.57
2023-04-08T18:53:12.654Z,32.44
2023-04-08T18:56:13.716Z,32.36
2023-04-08T18:59:14.686Z,32.50
2023-04-08T19:02:15.933Z,32.32
2023-04-08T19:05:16.634Z,32.23
2023-04-08T19:08:17.730Z,32.20
2023-04-08T19:11:18.655Z,32.26
2023-04-08T19:14:19.695Z,32.07
2023-04-08T19:17:20.625Z,32.24
2023-04-08T19:20:21.653Z,32.09
2023-04-08T19:23:25.655Z,32.08
2023-04-08T19:26:26.677Z,32.28
2023-04-08T19:29:29.653Z,32.38
2023-04-08T19:32:30.688Z,32.13
2023-04-08T19:35:31.673Z,32.24
2023-04-08T19:38:32.683Z,32.40
2023-04-08T19:41:33.664Z,32.29
2023-04-08T19:44:34.685Z,32.25
2023-04-08T19:47:35.671Z,32.15
2023-04-08T19:50:36.726Z,32.26
2023-04-08T19:53:37.801Z,32.28
2023-04-08T19:56:40.726Z,32.15
2023-04-08T19:59:41.656Z,32.13
2023-04-08T20:02:42.947Z,32.25
2023-04-08T20:05:43.629Z,32.26
2023-04-08T20:08:44.743Z,32.25
2023-04-08T20:11:45.647Z,32.27
2023-04-08T20:14:49.006Z,32.17
2023-04-08T20:18:52.577Z,32.18
2023-04-08T20:26:32.664Z,32.63
2023-04-08T20:29:33.740Z,32.24
2023-04-08T20:32:34.744Z,32.17
2023-04-08T20:35:35.734Z,32.21
2023-04-08T20:38:36.655Z,32.23
2023-04-08T20:41:40.773Z,32.07
2023-04-08T20:44:41.636Z,32.14
2023-04-08T20:47:42.746Z,32.30
2023-04-08T20:50:43.645Z,32.21
2023-04-08T20:53:44.794Z,32.17
2023-04-08T20:56:47.226Z,32.15
2023-04-08T20:59:47.863Z,32.48
2023-04-08T21:02:50.184Z,32.62
2023-04-08T21:05:51.443Z,32.38
2023-04-08T21:08:54.132Z,32.52
2023-04-08T21:11:54.883Z,32.40
2023-04-08T21:14:58.731Z,32.36
2023-04-08T21:18:00.339Z,32.21
2023-04-08T21:21:01.790Z,32.49
2023-04-08T21:24:27.937Z,32.66
2023-04-08T21:27:28.660Z,32.48
2023-04-08T21:30:29.646Z,32.46
2023-04-08T21:33:30.621Z,32.08
2023-04-08T21:36:31.653Z,32.25
2023-04-08T21:39:32.628Z,32.15
2023-04-08T21:42:35.698Z,32.30
2023-04-08T21:45:36.671Z,32.04
2023-04-08T21:48:37.670Z,32.31
2023-04-08T21:51:39.635Z,32.06
2023-04-08T21:54:40.657Z,32.29
2023-04-08T21:57:41.684Z,32.24
2023-04-08T22:00:42.649Z,31.99
2023-04-08T22:03:43.723Z,31.94
2023-04-08T22:06:44.745Z,32.12
2023-04-08T22:09:45.669Z,32.16
2023-04-08T22:13:11.682Z,32.04
2023-04-08T22:16:12.619Z,32.30
2023-04-08T22:19:13.685Z,32.33
2023-04-08T22:22:14.645Z,32.33
2023-04-08T22:25:15.670Z,32.15
2023-04-08T22:28:16.606Z,32.18
2023-04-08T22:31:21.728Z,32.31
2023-04-08T22:34:22.618Z,32.43
2023-04-08T22:37:23.671Z,32.26
2023-04-08T22:40:24.932Z,32.53
2023-04-08T22:43:26.715Z,32.14
2023-04-08T22:46:27.643Z,32.29
2023-04-08T22:49:28.668Z,32.23
2023-04-08T22:52:29.613Z,32.11
2023-04-08T22:55:30.677Z,32.25
2023-04-08T22:58:31.619Z,32.14
2023-04-08T23:01:32.704Z,32.02
2023-04-08T23:04:33.646Z,32.16
2023-04-08T23:07:34.854Z,32.51
2023-04-08T23:10:54.907Z,32.17
2023-04-08T23:13:41.765Z,32.27
2023-04-08T23:16:42.643Z,32.62
2023-04-08T23:19:43.660Z,32.33
2023-04-08T23:22:44.653Z,32.43
2023-04-08T23:25:48.650Z,32.30
2023-04-08T23:28:50.990Z,32.19
2023-04-08T23:31:51.661Z,32.24
2023-04-08T23:34:52.598Z,32.15
2023-04-08T23:37:53.653Z,32.17
2023-04-08T23:40:54.629Z,32.06
2023-04-08T23:43:55.660Z,32.29
2023-04-08T23:46:56.695Z,32.04
2023-04-08T23:49:58.662Z,31.95
2023-04-08T23:53:00.636Z,31.95
2023-04-08T23:56:01.872Z,32.03
2023-04-08T23:59:02.613Z,31.96
